Time;durP1;ratioP1;P1;durP2;ratioP2;P2;SDS_P1;SDS_P2;PMS_P1;PMS_P2;Temp;Humidity;BMP_temperature;BMP_pressure;BME280_temperature;BME280_humidity;BME280_pressure;Samples;Min_cycle;Max_cycle;Signal;HPM_P1;HPM_P2
2022/10/10 00:02:14;;;;;;;7.07;1.45;;;10.60;97.50;;;;;;5050336;28;20044;-73
2022/10/10 00:04:40;;;;;;;5.65;1.73;;;10.60;97.40;;;;;;5050822;28;20112;-72
2022/10/10 00:07:06;;;;;;;6.13;1.30;;;10.60;97.50;;;;;;5049747;28;20421;-72
2022/10/10 00:09:31;;;;;;;6.05;1.85;;;10.50;97.40;;;;;;5050718;28;20065;-72
2022/10/10 00:11:57;;;;;;;4.20;1.23;;;10.60;97.40;;;;;;5050819;28;20064;-71
2022/10/10 00:14:23;;;;;;;3.55;1.65;;;10.70;97.40;;;;;;5049433;28;20025;-72
2022/10/10 00:16:49;;;;;;;3.42;1.40;;;10.70;97.30;;;;;;5051029;28;20075;-72
2022/10/10 00:19:14;;;;;;;6.50;1.65;;;10.80;97.30;;;;;;5050782;28;20079;-72
2022/10/10 00:21:40;;;;;;;3.78;1.63;;;10.80;97.30;;;;;;5050581;28;20033;-73
2022/10/10 00:24:06;;;;;;;4.07;1.63;;;10.70;97.30;;;;;;5050621;28;20072;-72
2022/10/10 00:26:32;;;;;;;4.90;1.42;;;10.70;97.30;;;;;;5051177;28;20459;-72
2022/10/10 00:28:58;;;;;;;6.18;1.58;;;10.60;97.50;;;;;;5050615;28;20522;-73
2022/10/10 00:31:24;;;;;;;5.70;1.65;;;10.50;97.50;;;;;;5049718;28;20116;-73
2022/10/10 00:33:50;;;;;;;3.00;1.27;;;10.40;97.70;;;;;;5049492;28;20033;-72
2022/10/10 00:36:16;;;;;;;4.13;1.48;;;10.30;97.80;;;;;;5050466;28;20348;-72
2022/10/10 00:38:41;;;;;;;6.13;1.50;;;10.40;97.80;;;;;;5050302;28;20044;-72
2022/10/10 00:41:07;;;;;;;9.70;2.20;;;10.20;97.70;;;;;;5050836;28;20025;-73
2022/10/10 00:43:34;;;;;;;7.60;1.38;;;10.20;97.80;;;;;;5050274;28;20124;-73
2022/10/10 00:46:00;;;;;;;8.32;1.83;;;10.20;97.70;;;;;;5053901;28;20021;-72
2022/10/10 00:48:28;;;;;;;3.15;1.33;;;10.20;97.60;;;;;;5053363;28;20135;-72
2022/10/10 00:50:56;;;;;;;3.60;1.60;;;10.30;97.80;;;;;;5053263;28;20362;-72
2022/10/10 00:53:29;;;;;;;4.47;0.95;;;10.20;97.40;;;;;;5054168;28;20021;-73
2022/10/10 00:55:55;;;;;;;6.70;2.13;;;10.30;97.70;;;;;;5054850;28;20029;-73
2022/10/10 00:58:22;;;;;;;13.40;1.85;;;10.20;97.70;;;;;;5054221;28;20036;-72
2022/10/10 01:00:49;;;;;;;4.38;1.55;;;10.10;97.40;;;;;;5054161;28;20558;-73
2022/10/10 01:03:14;;;;;;;5.78;1.73;;;10.20;97.60;;;;;;5054175;28;20033;-74
2022/10/10 01:05:42;;;;;;;7.70;1.70;;;10.20;97.30;;;;;;5053792;28;20360;-72
2022/10/10 01:08:08;;;;;;;7.15;1.75;;;10.10;97.30;;;;;;5054883;28;20481;-72
2022/10/10 01:10:57;;;;;;;8.35;1.90;;;10.10;97.20;;;;;;5053899;28;20052;-73
2022/10/10 01:13:39;;;;;;;4.82;1.55;;;10.10;97.30;;;;;;5046286;28;20493;-72
2022/10/10 01:16:25;;;;;;;9.20;2.45;;;10.10;98.00;;;;;;5054040;28;20467;-72
2022/10/10 01:19:23;;;;;;;6.53;1.52;;;10.00;97.80;;;;;;5053961;28;20128;-72
2022/10/10 01:22:21;;;;;;;7.38;1.65;;;10.00;97.80;;;;;;5053794;28;20029;-72
2022/10/10 01:24:54;;;;;;;4.53;1.60;;;10.10;97.90;;;;;;5053980;28;20033;-71
2022/10/10 01:27:30;;;;;;;7.38;1.55;;;10.10;97.90;;;;;;5054109;28;20037;-73
2022/10/10 01:30:09;;;;;;;7.22;1.40;;;10.10;97.80;;;;;;5053797;28;20025;-71
2022/10/10 01:32:51;;;;;;;5.20;1.48;;;10.00;97.70;;;;;;5053562;28;20024;-72
2022/10/10 01:35:26;;;;;;;4.35;1.85;;;10.10;98.20;;;;;;5057856;28;20099;-71
2022/10/10 01:38:10;;;;;;;7.95;1.63;;;10.10;97.90;;;;;;5072166;28;20037;-72
2022/10/10 01:40:46;;;;;;;4.90;1.42;;;10.10;98.10;;;;;;5073882;28;20415;-71
2022/10/10 01:43:12;;;;;;;4.97;1.58;;;10.00;97.90;;;;;;5072434;28;20055;-71
2022/10/10 01:45:49;;;;;;;6.28;1.65;;;10.10;98.20;;;;;;5072275;28;20036;-72
2022/10/10 01:48:21;;;;;;;4.68;1.60;;;10.10;97.70;;;;;;5073814;28;20121;-72
2022/10/10 01:51:06;;;;;;;4.78;1.55;;;10.10;97.70;;;;;;5073300;28;20477;-72
2022/10/10 01:53:47;;;;;;;8.18;1.60;;;10.00;97.00;;;;;;5073104;28;20039;-71
2022/10/10 01:56:37;;;;;;;3.65;1.52;;;10.00;97.20;;;;;;5072666;28;20382;-71
2022/10/10 01:59:05;;;;;;;5.80;1.52;;;10.00;97.40;;;;;;5073239;28;20032;-71
2022/10/10 02:01:40;;;;;;;4.63;1.55;;;9.90;97.90;;;;;;5073054;28;20045;-71
2022/10/10 02:04:24;;;;;;;3.55;1.40;;;10.00;97.80;;;;;;5073116;28;20431;-71
2022/10/10 02:07:21;;;;;;;6.68;1.63;;;10.00;97.50;;;;;;5072890;28;20024;-72
2022/10/10 02:09:48;;;;;;;2.60;1.63;;;10.00;97.50;;;;;;5073419;28;20368;-72
2022/10/10 02:12:15;;;;;;;5.05;1.60;;;10.00;97.60;;;;;;5073084;28;20385;-72
2022/10/10 02:14:45;;;;;;;5.18;1.77;;;10.10;97.80;;;;;;5071932;28;25711;-72
2022/10/10 02:17:13;;;;;;;7.05;1.80;;;10.10;98.00;;;;;;5073347;28;20055;-72
2022/10/10 02:19:45;;;;;;;7.50;1.45;;;10.00;97.90;;;;;;5072848;28;20089;-72
2022/10/10 02:22:12;;;;;;;3.50;1.13;;;10.00;97.90;;;;;;5072754;28;20032;-71
2022/10/10 02:24:38;;;;;;;4.70;1.77;;;10.10;97.90;;;;;;5072587;28;20441;-71
2022/10/10 02:27:35;;;;;;;5.20;1.55;;;10.20;97.80;;;;;;5072593;28;20062;-72
2022/10/10 02:30:03;;;;;;;6.63;1.73;;;10.10;97.70;;;;;;5063933;28;20033;-71
2022/10/10 02:32:43;;;;;;;7.47;1.48;;;10.10;97.50;;;;;;5071501;28;20032;-72
2022/10/10 02:35:15;;;;;;;11.85;2.10;;;10.10;97.40;;;;;;5073111;28;20017;-72
2022/10/10 02:37:42;;;;;;;6.63;1.50;;;10.10;97.40;;;;;;5072655;28;20128;-72
2022/10/10 02:40:11;;;;;;;4.32;1.60;;;10.10;97.60;;;;;;5071562;28;20395;-71
2022/10/10 02:42:37;;;;;;;4.97;1.88;;;10.10;97.30;;;;;;5071209;28;20481;-72
2022/10/10 02:45:04;;;;;;;4.18;1.20;;;10.10;97.30;;;;;;5071072;28;20363;-72
2022/10/10 02:47:29;;;;;;;6.65;1.73;;;10.10;97.30;;;;;;5072201;28;20028;-71
2022/10/10 02:49:55;;;;;;;7.95;1.45;;;10.10;97.30;;;;;;5071917;28;20486;-72
2022/10/10 02:52:21;;;;;;;7.38;2.20;;;10.10;97.80;;;;;;5072071;28;20537;-72
2022/10/10 02:54:47;;;;;;;4.07;1.30;;;10.10;97.70;;;;;;5072145;28;20028;-72
2022/10/10 02:57:13;;;;;;;6.00;1.52;;;10.10;97.70;;;;;;5072084;28;20061;-72
2022/10/10 02:59:39;;;;;;;5.88;1.38;;;10.10;97.80;;;;;;5070963;28;20365;-72
2022/10/10 03:02:05;;;;;;;7.18;2.08;;;10.00;97.60;;;;;;5072389;28;20111;-72
2022/10/10 03:04:31;;;;;;;4.63;1.40;;;10.00;97.60;;;;;;5071873;28;20349;-71
2022/10/10 03:06:57;;;;;;;6.65;1.77;;;10.00;97.90;;;;;;5071957;28;20028;-72
2022/10/10 03:09:22;;;;;;;5.68;1.88;;;10.00;97.90;;;;;;5070939;28;20033;-72
2022/10/10 03:11:48;;;;;;;7.32;2.17;;;9.90;98.50;;;;;;5071571;28;20048;-72
2022/10/10 03:14:14;;;;;;;4.38;1.33;;;9.90;98.50;;;;;;5072147;28;20021;-72
2022/10/10 03:16:39;;;;;;;14.82;1.60;;;9.90;98.50;;;;;;5070693;28;20020;-72
2022/10/10 03:19:07;;;;;;;4.95;1.42;;;10.00;98.10;;;;;;5071888;28;20110;-73
2022/10/10 03:21:34;;;;;;;5.22;1.65;;;9.90;98.50;;;;;;5070509;28;20025;-71
2022/10/10 03:23:59;;;;;;;5.13;1.75;;;9.90;98.30;;;;;;5070376;28;20064;-71
2022/10/10 03:26:25;;;;;;;5.82;1.77;;;9.90;98.50;;;;;;5070244;28;20060;-72
2022/10/10 03:28:51;;;;;;;3.78;1.40;;;9.80;98.70;;;;;;5071923;28;20020;-71
2022/10/10 03:31:16;;;;;;;10.23;2.38;;;9.80;98.70;;;;;;5071582;28;20028;-72
2022/10/10 03:33:42;;;;;;;7.35;1.60;;;9.80;98.70;;;;;;5071259;28;20040;-72
2022/10/10 03:36:08;;;;;;;8.75;1.55;;;9.80;98.80;;;;;;5071350;28;20116;-72
2022/10/10 03:38:34;;;;;;;5.18;1.60;;;9.80;98.80;;;;;;5071133;28;20416;-72
2022/10/10 03:40:59;;;;;;;3.97;1.40;;;9.80;98.70;;;;;;5071758;28;20028;-73
2022/10/10 03:43:25;;;;;;;2.65;1.60;;;9.70;98.70;;;;;;5071550;28;20036;-73
2022/10/10 03:45:51;;;;;;;13.52;2.60;;;9.70;98.60;;;;;;5071182;28;20081;-73
2022/10/10 03:48:17;;;;;;;5.05;1.95;;;9.70;98.70;;;;;;5071601;28;20033;-73
2022/10/10 03:50:43;;;;;;;5.88;1.77;;;9.60;98.70;;;;;;5071137;28;20374;-72
2022/10/10 03:53:09;;;;;;;6.07;1.77;;;9.60;98.80;;;;;;5071653;28;20028;-71
2022/10/10 03:55:34;;;;;;;3.15;1.17;;;9.70;98.80;;;;;;5070985;28;20024;-72
2022/10/10 03:58:00;;;;;;;7.38;1.77;;;9.60;98.80;;;;;;5070890;28;20039;-72
2022/10/10 04:00:26;;;;;;;11.02;2.05;;;9.60;98.70;;;;;;5070942;28;20044;-70
2022/10/10 04:02:52;;;;;;;5.18;1.30;;;9.70;98.70;;;;;;5069621;28;20028;-71
2022/10/10 04:05:18;;;;;;;5.65;1.42;;;9.60;98.60;;;;;;5071426;28;20025;-73
2022/10/10 04:07:44;;;;;;;7.78;1.70;;;9.60;98.70;;;;;;5071008;28;20060;-72
2022/10/10 04:10:09;;;;;;;4.70;1.73;;;9.60;98.80;;;;;;5070637;28;20458;-72
2022/10/10 04:12:35;;;;;;;4.70;1.50;;;9.50;98.90;;;;;;5070582;28;20037;-72
2022/10/10 04:15:01;;;;;;;3.53;1.98;;;9.50;98.90;;;;;;5070644;28;20029;-73
2022/10/10 04:17:27;;;;;;;6.40;1.83;;;9.40;98.70;;;;;;5070623;28;20457;-71
2022/10/10 04:19:53;;;;;;;6.72;1.77;;;9.40;98.90;;;;;;5070834;28;20036;-73
2022/10/10 04:22:18;;;;;;;5.75;1.70;;;9.40;98.90;;;;;;5070758;28;20072;-73
2022/10/10 04:24:44;;;;;;;5.05;1.65;;;9.40;99.00;;;;;;5070828;28;20048;-71
2022/10/10 04:27:10;;;;;;;13.50;1.90;;;9.50;99.00;;;;;;5071010;28;20088;-71
2022/10/10 04:29:36;;;;;;;5.28;1.73;;;9.50;99.00;;;;;;5070466;28;20071;-71
2022/10/10 04:32:02;;;;;;;4.88;1.52;;;9.50;98.90;;;;;;5069892;28;20064;-71
2022/10/10 04:34:27;;;;;;;7.13;2.40;;;9.40;98.90;;;;;;5070279;28;20040;-72
2022/10/10 04:36:53;;;;;;;4.38;1.73;;;9.40;98.50;;;;;;5070397;28;20037;-72
2022/10/10 04:39:19;;;;;;;3.70;1.60;;;9.30;98.70;;;;;;5070497;28;20036;-71
2022/10/10 04:41:48;;;;;;;4.38;1.80;;;9.30;98.80;;;;;;5070166;28;20504;-72
2022/10/10 04:44:17;;;;;;;4.70;1.40;;;9.30;98.60;;;;;;5070990;28;20090;-70
2022/10/10 04:46:43;;;;;;;5.05;1.85;;;9.30;98.80;;;;;;5069327;28;20039;-71
2022/10/10 04:49:09;;;;;;;5.32;1.75;;;9.30;98.80;;;;;;5070742;28;20033;-72
2022/10/10 04:51:35;;;;;;;4.80;2.15;;;9.30;98.60;;;;;;5070175;28;20052;-72
2022/10/10 04:54:00;;;;;;;6.85;1.60;;;9.20;98.80;;;;;;5070078;28;20043;-73
2022/10/10 04:56:26;;;;;;;7.45;1.92;;;9.30;98.80;;;;;;5070619;28;20346;-71
2022/10/10 04:58:52;;;;;;;6.05;1.85;;;9.30;98.60;;;;;;5070923;28;20074;-72
2022/10/10 05:01:18;;;;;;;10.32;1.85;;;9.20;98.60;;;;;;5070407;28;20045;-72
2022/10/10 05:03:43;;;;;;;4.72;1.75;;;9.20;98.90;;;;;;5070186;28;20052;-71
2022/10/10 05:06:09;;;;;;;4.68;1.42;;;9.30;98.80;;;;;;5070445;28;20454;-71
2022/10/10 05:08:35;;;;;;;3.00;1.48;;;9.30;99.00;;;;;;5070182;28;20024;-72
2022/10/10 05:11:01;;;;;;;7.72;2.65;;;9.20;99.00;;;;;;5070795;28;20382;-72
2022/10/10 05:13:27;;;;;;;5.25;1.67;;;9.30;98.90;;;;;;5069881;28;20036;-71
2022/10/10 05:15:52;;;;;;;6.38;1.88;;;9.30;98.90;;;;;;5070034;28;20032;-72
2022/10/10 05:18:19;;;;;;;3.22;2.08;;;9.30;98.70;;;;;;5070175;28;20033;-72
2022/10/10 05:20:46;;;;;;;5.78;1.92;;;9.30;98.70;;;;;;5069793;28;20021;-72
2022/10/10 05:23:15;;;;;;;7.97;2.10;;;9.30;99.10;;;;;;5070558;28;20431;-73
2022/10/10 05:25:48;;;;;;;6.40;1.85;;;9.40;99.30;;;;;;5070179;28;20028;-72
2022/10/10 05:28:14;;;;;;;3.58;1.70;;;9.40;99.30;;;;;;5069019;28;20056;-70
2022/10/10 05:30:39;;;;;;;5.18;1.70;;;9.50;99.10;;;;;;5070059;28;20150;-73
2022/10/10 05:33:05;;;;;;;14.80;1.95;;;9.60;99.50;;;;;;5073198;28;20032;-72
2022/10/10 05:35:31;;;;;;;8.15;2.08;;;9.50;99.30;;;;;;5072570;28;20426;-71
2022/10/10 05:37:57;;;;;;;3.05;1.45;;;9.50;99.40;;;;;;5073663;28;20075;-71
2022/10/10 05:40:23;;;;;;;11.27;2.17;;;9.50;99.50;;;;;;5072883;28;20029;-73
2022/10/10 05:42:49;;;;;;;13.48;3.55;;;9.60;99.40;;;;;;5062627;28;20033;-70
2022/10/10 05:45:15;;;;;;;14.23;3.38;;;9.50;98.80;;;;;;5053357;28;20036;-72
2022/10/10 05:47:40;;;;;;;7.30;1.88;;;9.50;99.10;;;;;;5069037;28;20041;-72
2022/10/10 05:50:11;;;;;;;9.43;2.28;;;9.50;99.20;;;;;;5069373;28;20024;-72
2022/10/10 05:52:37;;;;;;;3.85;1.73;;;9.50;99.20;;;;;;5053509;28;20098;-72
2022/10/10 05:55:03;;;;;;;5.15;2.00;;;9.50;99.10;;;;;;5053461;28;20044;-71
2022/10/10 05:57:29;;;;;;;3.70;1.67;;;9.40;98.90;;;;;;5052171;28;20037;-70
2022/10/10 05:59:55;;;;;;;4.90;2.10;;;9.40;98.80;;;;;;5068820;28;20043;-72
2022/10/10 06:02:20;;;;;;;8.30;2.00;;;9.40;99.00;;;;;;5069171;28;20454;-72
2022/10/10 06:04:46;;;;;;;5.88;1.58;;;9.40;99.00;;;;;;5052508;28;20040;-76
2022/10/10 06:07:12;;;;;;;4.43;1.90;;;9.40;99.10;;;;;;5052013;28;20129;-70
2022/10/10 06:09:37;;;;;;;7.35;2.30;;;9.50;99.10;;;;;;5052793;28;20037;-72
2022/10/10 06:12:03;;;;;;;9.70;2.13;;;9.50;99.00;;;;;;5052404;28;20522;-71
2022/10/10 06:14:35;;;;;;;8.95;1.98;;;9.50;99.00;;;;;;5052625;28;20171;-74
2022/10/10 06:17:00;;;;;;;9.07;2.22;;;9.60;99.00;;;;;;5053339;28;20036;-74
2022/10/10 06:19:26;;;;;;;5.78;2.13;;;9.50;98.70;;;;;;5052675;28;20455;-76
2022/10/10 06:21:51;;;;;;;8.43;2.10;;;9.60;99.10;;;;;;5068287;28;20037;-73
2022/10/10 06:24:17;;;;;;;7.80;2.78;;;9.60;99.10;;;;;;5052686;28;20040;-72
2022/10/10 06:26:43;;;;;;;8.57;3.78;;;9.60;99.20;;;;;;5052956;28;20481;-75
2022/10/10 06:29:08;;;;;;;5.70;3.20;;;9.70;99.10;;;;;;5068626;28;20029;-72
2022/10/10 06:31:38;;;;;;;7.00;2.22;;;9.70;99.00;;;;;;5052595;28;20033;-72
2022/10/10 06:34:04;;;;;;;14.18;6.00;;;9.80;99.00;;;;;;5067842;28;20037;-72
2022/10/10 06:36:30;;;;;;;5.90;2.88;;;9.80;98.80;;;;;;5068000;28;20040;-72
2022/10/10 06:38:56;;;;;;;19.70;6.78;;;9.80;98.80;;;;;;5052199;28;20088;-72
2022/10/10 06:41:21;;;;;;;6.88;2.20;;;9.90;98.80;;;;;;5052414;28;20467;-75
2022/10/10 06:43:48;;;;;;;7.65;2.20;;;10.00;98.40;;;;;;5052474;28;20092;-74
2022/10/10 06:46:14;;;;;;;6.05;2.20;;;10.00;98.30;;;;;;5052154;28;20044;-72
2022/10/10 06:48:39;;;;;;;5.22;2.13;;;10.00;98.30;;;;;;5052510;28;20029;-73
2022/10/10 06:51:08;;;;;;;4.72;1.88;;;10.10;98.20;;;;;;5052231;28;20469;-72
2022/10/10 06:53:35;;;;;;;4.90;2.00;;;10.20;98.30;;;;;;5051677;28;20039;-72
2022/10/10 06:56:01;;;;;;;3.50;1.98;;;10.20;98.30;;;;;;5067939;28;20021;-72
2022/10/10 06:58:28;;;;;;;11.50;2.25;;;10.30;98.30;;;;;;5051713;28;20053;-70
2022/10/10 07:00:59;;;;;;;7.85;2.20;;;10.30;98.30;;;;;;5051777;28;20032;-72
2022/10/10 07:03:26;;;;;;;6.78;2.10;;;10.40;98.10;;;;;;5051667;28;20102;-72
2022/10/10 07:05:54;;;;;;;7.13;2.53;;;10.40;98.20;;;;;;5051700;28;20029;-72
2022/10/10 07:08:20;;;;;;;6.57;1.83;;;10.40;98.10;;;;;;5067764;28;20078;-72
2022/10/10 07:10:46;;;;;;;7.70;1.90;;;10.50;98.00;;;;;;5051460;28;20052;-72
2022/10/10 07:13:13;;;;;;;6.57;2.38;;;10.50;98.10;;;;;;5051293;28;20029;-72
2022/10/10 07:15:38;;;;;;;3.55;1.92;;;10.60;98.00;;;;;;5051793;28;20075;-74
2022/10/10 07:18:05;;;;;;;12.07;4.65;;;10.60;98.00;;;;;;5051547;28;20060;-71
2022/10/10 07:20:31;;;;;;;5.40;2.17;;;10.70;98.20;;;;;;5051535;28;20049;-73
2022/10/10 07:22:56;;;;;;;6.85;2.10;;;10.70;98.20;;;;;;5067375;28;20028;-72
2022/10/10 07:25:22;;;;;;;5.20;1.77;;;10.80;98.20;;;;;;5051367;28;20044;-72
2022/10/10 07:27:48;;;;;;;5.93;1.63;;;10.90;98.00;;;;;;5050336;28;20045;-73
2022/10/10 07:30:14;;;;;;;14.40;1.90;;;10.90;98.00;;;;;;5066744;28;20467;-71
2022/10/10 07:32:39;;;;;;;4.07;1.73;;;11.00;97.90;;;;;;5066617;28;20029;-71
2022/10/10 07:35:05;;;;;;;5.15;2.20;;;11.00;97.90;;;;;;5051521;28;20453;-72
2022/10/10 07:37:31;;;;;;;4.90;1.88;;;11.10;97.80;;;;;;5051479;28;20033;-75
2022/10/10 07:39:57;;;;;;;7.78;1.73;;;11.20;97.90;;;;;;5066778;28;20048;-73
2022/10/10 07:42:22;;;;;;;4.07;1.80;;;11.20;97.90;;;;;;5067152;28;20129;-73
2022/10/10 07:44:48;;;;;;;3.58;1.60;;;11.30;97.80;;;;;;5066999;28;20079;-74
2022/10/10 07:47:14;;;;;;;8.77;2.05;;;11.40;97.90;;;;;;5051951;28;20332;-73
2022/10/10 07:49:40;;;;;;;4.18;1.75;;;11.50;97.90;;;;;;5051190;28;20029;-74
2022/10/10 07:52:06;;;;;;;5.93;1.40;;;11.50;97.80;;;;;;5051091;28;20029;-74
2022/10/10 07:54:32;;;;;;;7.13;1.90;;;11.60;97.90;;;;;;5050768;28;20033;-73
2022/10/10 07:56:58;;;;;;;2.20;1.40;;;11.70;97.60;;;;;;5051179;28;20033;-75
2022/10/10 07:59:24;;;;;;;7.70;3.85;;;11.70;97.60;;;;;;5066921;28;20040;-73
2022/10/10 08:01:50;;;;;;;5.63;2.63;;;11.80;97.60;;;;;;5051307;28;20263;-72
2022/10/10 08:04:17;;;;;;;7.22;2.72;;;11.90;97.50;;;;;;5050629;28;20021;-72
2022/10/10 08:06:43;;;;;;;8.57;2.20;;;12.00;97.50;;;;;;5050959;28;20075;-73
2022/10/10 08:09:09;;;;;;;18.55;2.42;;;12.10;97.40;;;;;;5050781;28;20033;-72
2022/10/10 08:11:35;;;;;;;8.77;1.80;;;12.20;97.30;;;;;;5050514;28;20141;-72
2022/10/10 08:14:00;;;;;;;7.10;1.67;;;12.20;97.30;;;;;;5050125;28;20119;-74
2022/10/10 08:16:28;;;;;;;5.60;1.60;;;12.30;97.50;;;;;;5051093;28;20068;-72
2022/10/10 08:18:53;;;;;;;8.75;2.22;;;12.40;97.30;;;;;;5066255;28;20053;-72
2022/10/10 08:21:19;;;;;;;4.43;1.73;;;12.50;97.10;;;;;;5050782;28;20486;-73
2022/10/10 08:23:45;;;;;;;6.07;2.90;;;12.50;97.00;;;;;;5050529;28;20029;-73
2022/10/10 08:26:13;;;;;;;6.85;2.60;;;12.60;97.00;;;;;;5051056;28;20021;-72
2022/10/10 08:28:39;;;;;;;10.93;2.53;;;12.70;96.90;;;;;;5066183;28;20033;-71
2022/10/10 08:31:06;;;;;;;3.75;1.77;;;12.80;96.80;;;;;;5050456;28;20032;-73
2022/10/10 08:33:32;;;;;;;5.57;1.60;;;12.90;96.70;;;;;;5050562;28;20033;-72
2022/10/10 08:35:58;;;;;;;4.05;1.40;;;13.00;96.60;;;;;;5050374;28;20033;-73
2022/10/10 08:38:23;;;;;;;4.47;1.58;;;13.30;97.00;;;;;;5050351;28;20033;-73
2022/10/10 08:40:53;;;;;;;8.70;1.63;;;13.90;96.80;;;;;;5050771;28;20033;-70
2022/10/10 08:43:59;;;;;;;4.57;1.50;;;14.40;96.90;;;;;;5050531;28;20106;-73
2022/10/10 08:46:51;;;;;;;3.97;1.83;;;15.20;96.70;;;;;;5017022;28;20037;-73
2022/10/10 08:49:33;;;;;;;2.95;1.30;;;16.00;95.70;;;;;;5047717;28;20079;-74
2022/10/10 08:52:33;;;;;;;5.50;1.63;;;16.60;95.90;;;;;;5050835;28;20029;-73
2022/10/10 08:55:02;;;;;;;5.00;1.65;;;17.50;95.40;;;;;;5050189;28;20118;-74
2022/10/10 08:57:34;;;;;;;4.05;1.80;;;18.20;94.60;;;;;;5050496;28;20622;-72
2022/10/10 09:00:06;;;;;;;2.63;1.30;;;18.70;93.00;;;;;;5050228;28;20036;-71
2022/10/10 09:02:59;;;;;;;7.68;2.97;;;19.20;92.40;;;;;;5050381;28;20025;-71
2022/10/10 09:05:37;;;;;;;5.93;2.40;;;19.70;92.60;;;;;;5051000;28;20028;-71
2022/10/10 09:08:27;;;;;;;7.45;2.40;;;20.30;91.30;;;;;;5054501;28;20021;-69
2022/10/10 09:11:01;;;;;;;3.53;1.48;;;20.90;90.10;;;;;;5053819;28;20442;-72
2022/10/10 09:13:31;;;;;;;2.13;1.50;;;21.80;86.50;;;;;;5053880;28;20037;-73
2022/10/10 09:15:58;;;;;;;6.25;1.50;;;22.80;82.50;;;;;;5053849;28;20481;-74
2022/10/10 09:18:52;;;;;;;5.20;1.52;;;23.60;80.60;;;;;;5069426;28;20064;-73
2022/10/10 09:21:32;;;;;;;6.57;1.50;;;24.10;79.40;;;;;;5069589;28;20115;-73
2022/10/10 09:24:09;;;;;;;4.90;1.27;;;24.10;73.00;;;;;;5054113;28;20111;-72
2022/10/10 09:26:42;;;;;;;6.53;1.88;;;24.70;76.30;;;;;;5053778;28;20017;-73
2022/10/10 09:29:17;;;;;;;3.92;1.52;;;24.90;75.10;;;;;;5054401;28;20021;-73
2022/10/10 09:31:51;;;;;;;6.88;1.70;;;25.00;71.80;;;;;;5068901;28;20035;-73
2022/10/10 09:34:20;;;;;;;3.78;1.48;;;25.20;69.90;;;;;;5053308;28;20056;-70
2022/10/10 09:36:46;;;;;;;4.82;1.67;;;25.50;71.20;;;;;;5053453;28;20039;-73
2022/10/10 09:39:31;;;;;;;3.42;1.58;;;26.00;70.70;;;;;;5068995;28;20028;-73
2022/10/10 09:41:59;;;;;;;2.85;1.35;;;26.50;69.70;;;;;;5068754;28;20490;-75
2022/10/10 09:44:25;;;;;;;;;;;26.90;70.70;;;;;;5053987;28;20021;-74
2022/10/10 09:46:51;;;;;;;3.00;1.63;;;27.30;63.50;;;;;;5053941;28;20225;-72
2022/10/10 09:49:18;;;;;;;10.18;1.83;;;27.80;65.20;;;;;;5053523;28;20140;-72
2022/10/10 09:51:46;;;;;;;4.10;1.65;;;28.30;61.30;;;;;;5053045;28;20117;-73
2022/10/10 09:54:14;;;;;;;5.53;1.83;;;29.00;61.70;;;;;;5053181;28;20371;-74
2022/10/10 09:56:52;;;;;;;3.50;1.27;;;29.10;61.80;;;;;;5053295;28;20060;-73
2022/10/10 09:59:39;;;;;;;7.25;1.52;;;29.00;57.70;;;;;;5053483;28;20037;-74
2022/10/10 10:02:20;;;;;;;5.43;2.17;;;29.60;57.20;;;;;;5053591;28;20462;-73
2022/10/10 10:04:47;;;;;;;5.57;2.25;;;29.80;54.60;;;;;;5068318;28;20103;-73
2022/10/10 10:07:36;;;;;;;8.80;1.55;;;30.00;55.90;;;;;;5068453;28;20431;-74
2022/10/10 10:10:17;;;;;;;4.75;1.50;;;30.20;54.60;;;;;;5068521;28;20400;-75
2022/10/10 10:12:44;;;;;;;3.53;1.98;;;30.30;54.10;;;;;;5052583;28;20422;-75
2022/10/10 10:15:20;;;;;;;4.47;1.60;;;30.30;53.10;;;;;;5051307;28;20104;-73
2022/10/10 10:18:06;;;;;;;3.90;1.80;;;30.60;55.30;;;;;;5051950;28;20347;-73
2022/10/10 10:20:36;;;;;;;7.65;1.80;;;30.40;53.00;;;;;;5052285;28;20543;-74
2022/10/10 10:23:01;;;;;;;3.38;1.30;;;30.50;53.50;;;;;;5053014;28;20118;-73
2022/10/10 10:25:36;;;;;;;3.78;1.83;;;30.70;52.00;;;;;;5052587;28;20060;-72
2022/10/10 10:28:11;;;;;;;3.42;1.63;;;30.70;51.90;;;;;;5052492;28;20029;-73
2022/10/10 10:30:42;;;;;;;3.97;1.40;;;30.30;53.70;;;;;;5052526;28;20033;-73
2022/10/10 10:33:34;;;;;;;2.95;1.67;;;30.80;53.50;;;;;;5052087;28;20040;-73
2022/10/10 10:35:59;;;;;;;11.20;2.33;;;30.70;53.60;;;;;;5052104;28;20037;-73
2022/10/10 10:38:41;;;;;;;4.43;1.63;;;30.20;51.50;;;;;;5052094;28;20473;-73
2022/10/10 10:41:45;;;;;;;7.47;2.03;;;30.20;51.00;;;;;;5051753;28;20174;-74
2022/10/10 10:44:33;;;;;;;4.90;1.77;;;30.40;50.90;;;;;;5052429;28;20124;-73
2022/10/10 10:47:26;;;;;;;13.32;3.85;;;30.70;51.10;;;;;;5053466;28;20076;-73
2022/10/10 10:50:09;;;;;;;4.07;1.83;;;30.80;51.10;;;;;;5053394;28;20397;-73
2022/10/10 10:52:55;;;;;;;4.63;1.65;;;31.10;51.00;;;;;;5052230;28;20102;-73
2022/10/10 10:55:45;;;;;;;5.88;1.60;;;31.20;49.90;;;;;;5052146;28;20048;-72
2022/10/10 10:58:22;;;;;;;7.65;2.33;;;30.90;49.90;;;;;;5052016;28;20029;-73
2022/10/10 11:01:01;;;;;;;4.13;2.08;;;31.10;49.80;;;;;;5052177;28;20021;-73
2022/10/10 11:03:39;;;;;;;8.32;2.15;;;30.80;49.20;;;;;;5050766;28;20127;-73
2022/10/10 11:06:25;;;;;;;5.35;2.00;;;30.20;50.20;;;;;;5051988;28;20162;-73
2022/10/10 11:08:54;;;;;;;4.57;1.92;;;30.20;50.70;;;;;;5051188;28;20032;-71
2022/10/10 11:11:57;;;;;;;6.25;2.45;;;30.90;50.10;;;;;;5051796;28;20634;-71
2022/10/10 11:14:42;;;;;;;5.05;1.75;;;29.90;48.00;;;;;;5051573;28;20087;-71
2022/10/10 11:17:33;;;;;;;5.72;2.30;;;29.20;50.00;;;;;;5051891;28;20064;-71
2022/10/10 11:20:21;;;;;;;5.07;2.22;;;29.80;49.40;;;;;;5067210;28;20041;-71
2022/10/10 11:22:57;;;;;;;;;;;29.80;49.70;;;;;;5067623;28;20120;-72
2022/10/10 11:25:29;;;;;;;5.38;1.60;;;29.50;49.60;;;;;;5051187;28;19952;-72
2022/10/10 11:28:10;;;;;;;5.57;1.70;;;29.70;49.60;;;;;;5051137;28;20029;-72
2022/10/10 11:30:43;;;;;;;11.75;1.98;;;29.80;49.80;;;;;;5050656;28;20063;-73
2022/10/10 11:33:09;;;;;;;4.45;1.35;;;29.50;49.60;;;;;;5051221;28;20048;-71
2022/10/10 11:35:53;;;;;;;5.38;2.35;;;28.90;49.60;;;;;;5051462;28;20029;-72
2022/10/10 11:38:47;;;;;;;6.18;2.25;;;27.80;50.90;;;;;;5051720;28;20067;-72
2022/10/10 11:41:16;;;;;;;5.78;2.03;;;27.10;51.90;;;;;;5051032;28;20037;-71
2022/10/10 11:44:00;;;;;;;7.03;2.30;;;26.30;53.50;;;;;;5066689;28;20343;-74
2022/10/10 11:46:31;;;;;;;6.93;2.70;;;25.40;54.30;;;;;;5051675;28;20371;-72
2022/10/10 11:49:12;;;;;;;5.68;2.05;;;25.30;55.40;;;;;;5054434;28;20426;-73
2022/10/10 11:51:47;;;;;;;7.03;2.17;;;25.30;55.60;;;;;;5053914;28;20482;-74
2022/10/10 11:54:37;;;;;;;12.00;2.95;;;25.10;55.90;;;;;;5052225;28;20381;-73
2022/10/10 11:57:11;;;;;;;8.63;2.85;;;24.40;57.10;;;;;;5051804;28;20024;-73
2022/10/10 11:59:52;;;;;;;9.63;2.67;;;24.20;57.30;;;;;;5050927;28;20032;-73
2022/10/10 12:02:32;;;;;;;7.07;1.83;;;24.00;58.70;;;;;;5052716;28;20048;-73
2022/10/10 12:04:58;;;;;;;9.98;2.45;;;23.80;58.20;;;;;;5052189;28;20033;-72
2022/10/10 12:07:29;;;;;;;7.28;2.45;;;23.40;59.20;;;;;;5066327;28;20048;-73
2022/10/10 12:10:09;;;;;;;10.35;2.00;;;23.60;59.60;;;;;;5051329;28;20170;-71
2022/10/10 12:12:45;;;;;;;12.50;2.67;;;23.40;60.00;;;;;;5051385;28;20466;-73
2022/10/10 12:15:33;;;;;;;6.93;2.42;;;22.60;61.40;;;;;;5051229;28;20459;-71
2022/10/10 12:17:59;;;;;;;7.85;2.40;;;22.60;62.10;;;;;;5050893;28;20040;-71
2022/10/10 12:20:25;;;;;;;10.25;2.35;;;22.60;62.60;;;;;;5050657;28;20040;-74
2022/10/10 12:23:18;;;;;;;11.15;2.67;;;22.60;62.80;;;;;;5051002;28;20059;-72
2022/10/10 12:25:45;;;;;;;16.02;3.08;;;22.40;63.80;;;;;;5050733;28;20111;-71
2022/10/10 12:28:13;;;;;;;5.30;1.90;;;22.40;64.10;;;;;;5050544;28;20045;-73
2022/10/10 12:30:51;;;;;;;7.55;2.03;;;22.30;64.40;;;;;;5050545;28;20090;-72
2022/10/10 12:33:40;;;;;;;;;;;22.20;64.80;;;;;;5050886;28;20132;-72
2022/10/10 12:36:18;;;;;;;6.35;1.60;;;22.10;65.50;;;;;;5050304;28;19951;-71
2022/10/10 12:39:04;;;;;;;;;;;22.10;65.90;;;;;;5050592;28;20033;-72
2022/10/10 12:41:48;;;;;;;4.93;1.80;;;21.90;64.80;;;;;;5053265;28;19913;-73
2022/10/10 12:44:13;;;;;;;9.45;1.55;;;22.10;64.80;;;;;;5070705;28;20029;-71
2022/10/10 12:46:41;;;;;;;7.22;2.45;;;22.20;64.90;;;;;;5054416;28;20044;-71
2022/10/10 12:49:23;;;;;;;6.93;1.80;;;22.30;64.40;;;;;;5054447;28;20029;-71
2022/10/10 12:52:18;;;;;;;8.77;1.92;;;22.20;63.20;;;;;;5054282;28;20044;-72
2022/10/10 12:54:45;;;;;;;9.45;2.08;;;22.10;63.50;;;;;;5069982;28;20275;-70
2022/10/10 12:57:10;;;;;;;14.25;2.95;;;21.90;63.40;;;;;;5054194;28;20025;-72
2022/10/10 12:59:37;;;;;;;7.35;1.67;;;21.60;64.10;;;;;;5054196;28;20060;-71
2022/10/10 13:02:11;;;;;;;3.90;1.50;;;21.60;64.50;;;;;;5055000;28;20028;-73
2022/10/10 13:04:41;;;;;;;9.32;1.90;;;21.70;64.80;;;;;;5054401;28;20301;-73
2022/10/10 13:07:14;;;;;;;6.97;2.22;;;21.70;65.00;;;;;;5055198;28;20029;-73
2022/10/10 13:09:44;;;;;;;5.32;1.95;;;21.80;64.60;;;;;;5054109;28;20033;-73
2022/10/10 13:12:24;;;;;;;5.70;1.67;;;21.60;64.40;;;;;;5053767;28;20477;-70